This demonstration page uses our WeatherBlox Daily Observations layout. Learn more.

Left ArrowRight Arrow

38.88101, -77.10428

Hourly Observations for July 9, 2016

Temp ( °F °C ) Dew Point ( °F °C ) Humidity (%) Winds ( mph kmh ) Pressure ( in mb ) Visibility ( mi km ) Precip ( " mm )
12:52 am 00:52 Mostly Cloudy 79 26.1 75 23.9 88 88 Calm 29.79 1009 10 16.0934 0 0
1:52 am 01:52 Partly Cloudy 79 26.1 75 23.9 88 88 Calm 29.79 1009 10 16.0934 0 0
2:52 am 02:52 Partly Cloudy 79 26.1 76 24.4 90 90 Calm 29.79 1009 10 16.0934 0 0
3:52 am 03:52 Mostly Cloudy 79 26.1 72 22.2 79 79 NNW 8 13 29.78 1009 10 16.0934 0 0
4:52 am 04:52 Mostly Cloudy 79 26.1 67 19.4 67 67 NW 9 15 29.79 1009 10 16.0934 0 0
5:52 am 05:52 Mostly Cloudy 79 26.1 66 18.9 65 65 NW 10 17 29.8 1009 10 16.0934 0 0
6:52 am 06:52 Mostly Cloudy 78 25.6 67 19.4 69 69 NNW 10 17 29.81 1009 10 16.0934 0 0
7:52 am 07:52 Mostly Cloudy 80 26.7 67 19.4 64 64 NNW 14 22 29.82 1010 10 16.0934 0 0
8:52 am 08:52 Mostly Cloudy 83 28.3 68 20 61 61 NNW 10 17 29.83 1010 10 16.0934 0 0
9:52 am 09:52 Mostly Cloudy 84 28.9 69 20.6 61 61 NW 9 15 29.83 1010 10 16.0934 0 0
10:52 am 10:52 Mostly Cloudy 86 30 71 21.7 61 61 N 8 13 29.82 1010 10 16.0934 0 0
11:52 am 11:52 Mostly Cloudy 87 30.6 70 21.1 57 57 NE 5 7 29.82 1010 10 16.0934 0 0
12:52 pm 12:52 Mostly Cloudy 90 32.2 70 21.1 52 52 W 8 13 29.81 1009 10 16.0934 0 0
1:52 pm 13:52 Mostly Cloudy 91 32.8 69 20.6 49 49 WNW 10 17 29.8 1009 10 16.0934 0 0
2:52 pm 14:52 Mostly Cloudy 92 33.3 68 20 46 46 W 5 7 29.79 1009 10 16.0934 0 0
3:19 pm 15:19 Mostly Cloudy with Rain 85 29.4 69 20.6 59 59 W 24 39 29.8 1009 3 4.82802 0.01 0.254
5:52 pm 17:52 Mostly Cloudy 89 31.7 70 21.1 53 53 SSW 13 20 29.78 1009 10 16.0934 0 0
6:52 pm 18:52 Mostly Cloudy 87 30.6 72 22.2 61 61 SW 12 19 29.78 1009 10 16.0934 0 0
7:52 pm 19:52 Partly Cloudy 86 30 70 21.1 59 59 SW 7 11 29.79 1009 10 16.0934 0 0
9:52 pm 21:52 Mostly Clear 84 28.9 61 16.1 46 46 WNW 9 15 29.82 1010 10 16.0934 0 0
11:52 pm 23:52 Mostly Clear 82 27.8 61 16.1 49 49 WNW 9 15 29.86 1011 10 16.0934 0 0

Powered by AerisWeather